Overview Statistics Trail Chart Weather Telemetry Raw packets
 

This is the latest recevied weather packets stored in our database for station/object SQ5AAG-2. If no packets are shown the sender has not sent any weather packets the latest 10 day(s).

<< 1 2 3 4 5 6 >>
Time Temp. Humidity Pressure Rain* Wind** Luminosity Snow
1788594380 17.78° C 69% 996 hPa 0 mm - - -
1788594084 17.78° C - - 0 mm - - -
1788594080 17.78° C 70% 995.8 hPa 0 mm - - -
1788593779 17.78° C 71% 996 hPa 0 mm - - -
1788593479 17.78° C 72% 995.9 hPa 0 mm - - -
1788593179 17.78° C 72% 995.8 hPa 0 mm - - -
1788592878 17.22° C 73% 995.8 hPa 0 mm - - -
1788592581 17.22° C 72% 995.9 hPa 0 mm - - -
1788592278 17.22° C 72% 995.7 hPa 0 mm - - -
1788591977 17.22° C 73% 995.6 hPa 0 mm - - -
1788591678 17.22° C 73% 995.6 hPa 0 mm - - -
1788591377 17.22° C 73% 995.5 hPa 0 mm - - -
1788591077 17.22° C 72% 995.5 hPa 0 mm - - -
1788590776 17.22° C 73% 995.3 hPa 0 mm - - -
1788590476 17.22° C 73% 995.1 hPa 0 mm - - -
1788590457 16.67° C 73% 995.1 hPa 0 mm - - -
1788590177 16.67° C 73% 995.1 hPa 0 mm - - -
1788589876 16.67° C 73% 995.2 hPa 0 mm - - -
1788589576 16.67° C 73% 995.2 hPa 0 mm - - -
1788553866 17.78° C 87% 989.7 hPa 1.02 mm - - -
1788553565 17.78° C 87% 989.6 hPa 1.02 mm - - -
1788553265 17.78° C 87% 989.8 hPa 1.02 mm - - -
1788552965 17.78° C 87% 989.5 hPa 1.02 mm - - -
1788552665 18.33° C 86% 989.2 hPa 1.02 mm - - -
1788552364 18.89° C 85% 989.3 hPa 1.02 mm - - -

* Rain latest hour (hover to see other rain measurements)
** Current wind speed in m/s (hover to see current wind gust speed)